Aérodrome :
LOGIN :

S'inscrire | Disclaimer

   EN    FR    IT 

 










Légende :    VFR   VFR Marginal   IFR   IFR Intensif   IFR Très Intensif
Visi : 
Plafond : 
>= 8 km
>= 3000ft
5 à 8 km
1000 à 3000 ft
1500m à 5 km
500 à 1000 ft
800 à 1500m
200 à 500 ft
< 800m
< 200 ft
Symboles :   Orages  Brouillard  Fortes neiges  Fortes précipitations  Vent > 20 kt
SIGMETs :   Divers  Orages  Givrage  Turbulence  Onde Orograph.  Cendres Volcan.






- Altitude de l'aérodrome : 131 ft
- Code IATA : TLL


EETN - Talinn

DERNIER METAR :
  • 281550Z 11005KT CAVOK 09/07 Q1032 NOSIG

METARs EXPIRÉS :
  • 281520Z 12004KT CAVOK 10/07 Q1032 NOSIG
  • 281450Z 12007KT 9999 FEW019 11/07 Q1032 NOSIG
  • 281420Z 13006KT 100V160 9999 FEW015 11/07 Q1032 NOSIG
  • 281350Z 14007KT 110V180 9999 FEW016 11/07 Q1032 NOSIG
  • 281320Z 13008KT 090V160 9999 FEW016 11/08 Q1032 NOSIG

TAF TAF EETN
Valide du 28 à 12h jusqu'au 29 à 12h UTC


281130Z 2812/2912 12010KT 9999 SCT020
PROB40
TEMPO 2814/2821 BKN015
PROB40
TEMPO 2821/2906 BKN005 OVC010



MET'MAP, la Météo Aéronautique d'un coup d'oeil ! - Copyright ORBIFLY Décembre 2007 - Disclaimer

ORBIFLY MET'MAP TEAM :

Programmation & Développement : Alexandra Zaïnal
Sur une idée originale de : Baudouin d'Aumeries
Assistance à la programmation : Marc-Olivier Méhu
Soutien technique & logistique : Manuel Goepfert

Contact : metmap@orbifly.com




SOURCES & CREDITS :

   NOAA